Time;durP1;ratioP1;P1;durP2;ratioP2;P2;SDS_P1;SDS_P2;PMS_P1;PMS_P2;Temp;Humidity;BMP_temperature;BMP_pressure;BME280_temperature;BME280_humidity;BME280_pressure;Samples;Min_cycle;Max_cycle;Signal;HPM_P1;HPM_P2
2021/04/11 00:00:21;;;;;;;2.13;1.90;;;;;;;1.97;89.53;101303.53;5015097;28;20416;-71
2021/04/11 00:02:48;;;;;;;1.80;1.70;;;;;;;1.97;89.13;101303.53;5016438;28;20058;-72
2021/04/11 00:05:17;;;;;;;2.20;2.00;;;;;;;1.92;88.80;101306.09;5013337;28;20220;-72
2021/04/11 00:07:45;;;;;;;2.35;1.83;;;;;;;1.97;89.19;101299.13;5016885;28;20064;-72
2021/04/11 00:10:15;;;;;;;1.88;1.65;;;;;;;2.00;88.95;101296.53;5010095;28;20058;-71
2021/04/11 00:12:42;;;;;;;2.08;1.98;;;;;;;2.02;88.95;101301.81;5016514;28;20373;-71
2021/04/11 00:15:10;;;;;;;2.10;2.00;;;;;;;1.96;88.88;101301.75;5015089;28;20396;-72
2021/04/11 00:17:37;;;;;;;2.22;1.77;;;;;;;1.97;88.98;101304.41;5015647;28;20379;-72
2021/04/11 00:20:04;;;;;;;2.00;1.90;;;;;;;1.99;88.95;101300.06;5017198;28;20069;-71
2021/04/11 00:22:32;;;;;;;2.58;1.80;;;;;;;1.96;88.68;101299.13;5015802;28;20057;-72
2021/04/11 00:25:00;;;;;;;2.10;1.90;;;;;;;1.98;89.02;101305.31;5015334;28;20470;-72
2021/04/11 00:27:26;;;;;;;1.88;1.73;;;;;;;1.95;88.53;101295.63;5017495;28;20079;-72
2021/04/11 00:29:53;;;;;;;1.45;1.35;;;;;;;1.97;89.14;101303.53;5012269;28;20061;-72
2021/04/11 00:32:20;;;;;;;1.65;1.45;;;;;;;1.93;88.68;101310.50;5016358;28;20076;-72
2021/04/11 00:34:47;;;;;;;2.20;1.80;;;;;;;1.95;89.24;101321.94;5014875;28;20334;-72
2021/04/11 00:37:13;;;;;;;1.63;1.52;;;;;;;2.02;89.28;101313.22;5018472;28;20064;-71
2021/04/11 00:39:40;;;;;;;1.60;1.50;;;;;;;1.95;89.51;101300.00;5017169;28;20217;-72
2021/04/11 00:42:14;;;;;;;1.40;1.40;;;;;;;1.90;88.77;101299.06;5012850;28;20057;-72
2021/04/11 00:44:41;;;;;;;1.60;1.50;;;;;;;1.90;89.03;101307.84;5012347;28;20119;-72
2021/04/11 00:47:09;;;;;;;1.92;1.42;;;;;;;1.94;89.66;101306.13;5012416;28;20328;-72
2021/04/11 00:49:39;;;;;;;1.52;1.42;;;;;;;1.93;89.90;101293.84;5017133;28;20237;-71
2021/04/11 00:52:08;;;;;;;1.38;1.35;;;;;;;1.88;89.30;101296.41;5012925;28;20057;-72
2021/04/11 00:54:36;;;;;;;1.50;1.40;;;;;;;1.91;89.77;101298.19;5017232;28;20067;-72
2021/04/11 00:57:04;;;;;;;1.70;1.60;;;;;;;1.93;89.65;101288.59;5012666;28;20060;-71
2021/04/11 00:59:33;;;;;;;1.52;1.42;;;;;;;1.97;89.52;101280.72;5016525;28;20068;-71
2021/04/11 01:02:00;;;;;;;1.58;1.45;;;;;;;1.93;89.63;101276.28;5011322;28;20081;-71
2021/04/11 01:04:28;;;;;;;1.58;1.48;;;;;;;1.94;89.52;101283.34;5017266;28;20057;-71
2021/04/11 01:06:58;;;;;;;1.60;1.50;;;;;;;1.95;89.96;101268.41;5013276;28;20049;-71
2021/04/11 01:09:39;;;;;;;1.85;1.30;;;;;;;1.95;89.85;101276.31;5015767;28;20524;-71
2021/04/11 01:12:09;;;;;;;1.38;1.38;;;;;;;1.90;89.54;101285.91;5012801;28;20072;-71
2021/04/11 01:14:38;;;;;;;2.00;1.48;;;;;;;1.84;89.62;101295.50;5013980;28;20083;-71
2021/04/11 01:17:06;;;;;;;1.38;1.27;;;;;;;1.86;90.03;101299.03;5014366;28;20226;-71
2021/04/11 01:19:36;;;;;;;1.30;1.30;;;;;;;1.89;89.84;101294.66;5015894;28;20427;-71
2021/04/11 01:22:13;;;;;;;1.55;1.40;;;;;;;1.82;90.15;101291.09;5016982;28;20601;-71
2021/04/11 01:24:44;;;;;;;1.30;1.20;;;;;;;1.91;90.08;101292.94;5015829;28;20371;-71
2021/04/11 01:27:15;;;;;;;1.15;1.15;;;;;;;1.89;89.92;101286.78;5011596;28;20065;-71
2021/04/11 01:29:46;;;;;;;1.50;1.40;;;;;;;1.85;89.88;101280.59;5014595;28;20063;-71
2021/04/11 01:32:14;;;;;;;1.48;1.38;;;;;;;1.89;89.54;101290.31;5013387;28;20210;-71
2021/04/11 01:34:42;;;;;;;1.40;1.40;;;;;;;1.86;89.45;101304.31;5015921;28;20057;-71
2021/04/11 01:37:13;;;;;;;1.50;1.40;;;;;;;1.80;89.79;101296.31;5015093;28;20061;-71
2021/04/11 01:39:44;;;;;;;1.40;1.40;;;;;;;1.80;89.49;101292.81;5012322;28;20092;-71
2021/04/11 01:42:12;;;;;;;3.22;1.50;;;;;;;1.82;89.74;101285.81;5018718;28;20065;-71
2021/04/11 01:44:41;;;;;;;1.80;1.70;;;;;;;1.84;89.67;101289.38;5012696;28;20057;-71
2021/04/11 01:47:09;;;;;;;1.50;1.50;;;;;;;1.85;89.79;101288.50;5016152;28;20068;-71
2021/04/11 01:49:36;;;;;;;1.60;1.50;;;;;;;1.86;90.07;101287.63;5012073;28;20061;-71
2021/04/11 01:52:09;;;;;;;1.40;1.40;;;;;;;1.78;90.06;101282.28;5016684;28;20128;-71
2021/04/11 01:54:37;;;;;;;1.88;1.70;;;;;;;1.80;90.01;101284.94;5011129;28;20112;-71
2021/04/11 01:57:08;;;;;;;1.98;1.88;;;;;;;1.82;89.68;101272.66;5015593;28;20069;-71
2021/04/11 01:59:36;;;;;;;1.80;1.70;;;;;;;1.82;89.40;101281.47;5010039;28;20410;-71
2021/04/11 02:02:06;;;;;;;1.60;1.50;;;;;;;1.80;89.30;101298.97;5017899;28;20061;-71
2021/04/11 02:04:34;;;;;;;1.95;1.70;;;;;;;1.82;90.04;101306.88;5009297;28;20064;-71
2021/04/11 02:07:04;;;;;;;1.77;1.65;;;;;;;1.83;89.61;101312.16;5017621;28;20061;-71
2021/04/11 02:09:34;;;;;;;1.90;1.80;;;;;;;1.79;89.84;101315.63;5012361;28;20072;-71
2021/04/11 02:12:01;;;;;;;1.88;1.77;;;;;;;1.80;89.91;101301.59;5019460;28;20068;-71
2021/04/11 02:14:30;;;;;;;1.80;1.70;;;;;;;1.79;89.25;101310.38;5015768;28;20094;-71
2021/04/11 02:16:57;;;;;;;1.70;1.60;;;;;;;1.82;89.02;101309.50;5019420;28;20057;-71
2021/04/11 02:19:27;;;;;;;1.60;1.50;;;;;;;1.85;89.75;101294.63;5018483;28;20066;-71
2021/04/11 02:22:01;;;;;;;2.45;1.65;;;;;;;1.83;89.79;101292.84;5018688;28;20069;-71
2021/04/11 02:24:29;;;;;;;1.63;1.52;;;;;;;1.84;89.69;101305.16;5017557;28;20138;-71
2021/04/11 02:26:56;;;;;;;1.75;1.65;;;;;;;1.80;89.30;101321.75;5019232;28;20061;-71
2021/04/11 02:29:25;;;;;;;1.80;1.70;;;;;;;1.77;89.23;101322.63;5017263;28;20061;-71
2021/04/11 02:31:52;;;;;;;1.70;1.60;;;;;;;1.75;88.94;101323.47;5016770;28;20926;-72
2021/04/11 02:34:24;;;;;;;1.73;1.63;;;;;;;1.79;89.19;101325.28;5017405;28;20072;-72
2021/04/11 02:36:56;;;;;;;1.80;1.70;;;;;;;1.84;89.06;101329.72;5019165;28;20111;-71
2021/04/11 02:39:26;;;;;;;2.65;1.83;;;;;;;1.75;88.71;101324.34;5019191;28;20057;-71
2021/04/11 02:41:54;;;;;;;2.35;2.00;;;;;;;1.78;88.54;101327.00;5018881;28;20153;-71
2021/04/11 02:44:22;;;;;;;2.10;1.90;;;;;;;1.78;88.52;101337.53;5017241;28;20063;-71
2021/04/11 02:46:50;;;;;;;2.03;1.90;;;;;;;1.75;88.57;101334.84;5018821;28;20509;-71
2021/04/11 02:49:22;;;;;;;1.73;1.63;;;;;;;1.74;89.04;101330.47;5021559;28;20061;-71
2021/04/11 02:51:50;;;;;;;1.70;1.60;;;;;;;1.83;89.28;101333.22;5016105;28;20088;-72
2021/04/11 02:54:20;;;;;;;1.63;1.52;;;;;;;1.77;88.67;101330.53;5019081;28;20061;-71
2021/04/11 02:56:48;;;;;;;1.60;1.50;;;;;;;1.80;88.88;101327.03;5015450;28;20397;-72
2021/04/11 02:59:16;;;;;;;2.00;1.80;;;;;;;1.82;89.54;101336.72;5017977;28;20061;-72
2021/04/11 03:01:47;;;;;;;2.58;2.15;;;;;;;1.77;89.09;101330.53;5017986;28;20148;-71
2021/04/11 03:04:16;;;;;;;2.08;1.88;;;;;;;1.77;88.84;101335.78;5016004;28;20080;-71
2021/04/11 03:06:48;;;;;;;2.30;2.10;;;;;;;1.74;89.03;101340.09;5019758;28;20058;-71
2021/04/11 03:09:20;;;;;;;3.22;1.83;;;;;;;1.79;88.66;101348.97;5017573;28;20057;-71
2021/04/11 03:11:51;;;;;;;1.75;1.65;;;;;;;1.75;88.49;101353.28;5022069;28;20046;-71
2021/04/11 03:14:20;;;;;;;2.70;2.50;;;;;;;1.84;88.88;101350.78;5012293;28;20054;-71
2021/04/11 03:16:48;;;;;;;2.67;1.90;;;;;;;1.79;88.54;101348.97;5017425;28;20160;-72
2021/04/11 03:19:18;;;;;;;1.40;1.30;;;;;;;1.84;88.58;101344.63;5014467;28;20107;-71
2021/04/11 03:21:46;;;;;;;2.40;1.95;;;;;;;1.80;88.45;101359.47;5022033;28;20054;-71
2021/04/11 03:24:13;;;;;;;1.65;1.58;;;;;;;1.89;88.00;101352.56;5015079;28;20348;-71
2021/04/11 03:26:44;;;;;;;1.80;1.70;;;;;;;1.89;88.57;101347.31;5016990;28;20072;-71
2021/04/11 03:29:17;;;;;;;2.90;1.70;;;;;;;1.87;87.92;101349.91;5013303;28;20123;-71
2021/04/11 03:31:54;;;;;;;1.90;1.80;;;;;;;1.83;87.51;101356.88;5019567;28;20666;-71
2021/04/11 03:34:23;;;;;;;2.03;1.90;;;;;;;1.82;87.39;101347.25;5005266;28;20145;-71
2021/04/11 03:36:52;;;;;;;2.05;1.88;;;;;;;1.92;88.20;101344.72;5020303;28;20077;-71
2021/04/11 03:39:19;;;;;;;1.80;1.70;;;;;;;1.86;88.16;101343.78;5012644;28;20064;-72
2021/04/11 03:41:47;;;;;;;1.90;1.73;;;;;;;1.88;87.60;101356.97;5019312;28;20065;-71
2021/04/11 03:44:20;;;;;;;2.10;1.95;;;;;;;1.85;87.42;101365.69;5014728;28;20061;-71
2021/04/11 03:46:54;;;;;;;3.83;2.30;;;;;;;1.84;87.66;101357.81;5018658;28;20398;-71
2021/04/11 03:49:27;;;;;;;1.98;1.88;;;;;;;1.78;87.58;101355.94;5013747;28;20388;-71
2021/04/11 03:51:59;;;;;;;2.22;1.95;;;;;;;1.85;87.29;101357.78;5021710;28;20061;-72
2021/04/11 03:54:29;;;;;;;2.55;2.00;;;;;;;1.80;87.27;101363.88;5014336;28;20068;-71
2021/04/11 03:57:07;;;;;;;2.30;1.92;;;;;;;1.78;87.20;101361.22;5020198;28;20128;-72
2021/04/11 03:59:36;;;;;;;1.63;1.52;;;;;;;1.78;86.90;101366.47;5012252;28;20065;-71
2021/04/11 04:02:06;;;;;;;1.52;1.30;;;;;;;1.77;86.12;101376.97;5016807;28;20065;-71
2021/04/11 04:04:38;;;;;;;1.98;1.20;;;;;;;1.75;85.08;101362.94;5014776;28;20061;-72
2021/04/11 04:07:12;;;;;;;1.20;1.20;;;;;;;1.77;85.58;101366.47;5015706;28;20057;-71
2021/04/11 04:09:39;;;;;;;1.90;1.30;;;;;;;1.72;85.12;101373.41;5015463;28;21058;-71
2021/04/11 04:12:50;;;;;;;1.10;1.10;;;;;;;1.75;85.38;101366.44;5017052;28;20087;-72
2021/04/11 04:15:41;;;;;;;1.00;1.00;;;;;;;1.73;85.59;101370.81;5015539;28;20061;-72
2021/04/11 04:18:30;;;;;;;1.17;0.80;;;;;;;1.74;84.79;101379.56;5011405;28;20520;-72
2021/04/11 04:21:08;;;;;;;1.10;1.02;;;;;;;1.76;84.69;101380.50;5016313;28;20204;-71
2021/04/11 04:23:49;;;;;;;1.38;0.95;;;;;;;1.70;84.13;101388.31;5016291;28;20062;-71
2021/04/11 04:26:33;;;;;;;0.90;0.90;;;;;;;1.71;85.02;101384.81;5016453;28;20250;-71
2021/04/11 04:29:09;;;;;;;3.58;1.40;;;;;;;1.68;83.79;101388.28;5014770;28;20061;-71
2021/04/11 04:31:51;;;;;;;0.90;0.90;;;;;;;1.70;83.55;101396.19;5016134;28;20083;-71
2021/04/11 04:34:28;;;;;;;1.33;1.00;;;;;;;1.66;84.25;101393.50;5013064;28;20068;-71
2021/04/11 04:37:11;;;;;;;1.65;1.20;;;;;;;1.65;84.39;101404.91;5013843;28;20057;-71
2021/04/11 04:39:50;;;;;;;1.00;1.00;;;;;;;1.65;84.67;101397.03;5015589;28;20084;-71
2021/04/11 04:42:22;;;;;;;1.20;1.10;;;;;;;1.72;84.22;101389.19;5014830;28;20306;-71
2021/04/11 04:44:58;;;;;;;1.35;1.20;;;;;;;1.77;84.24;101392.78;5016292;28;20895;-71
2021/04/11 04:47:37;;;;;;;1.20;1.10;;;;;;;1.77;84.75;101400.66;5012868;28;20069;-71
2021/04/11 04:50:12;;;;;;;1.85;1.50;;;;;;;1.70;84.70;101388.31;5016779;28;20076;-72
2021/04/11 04:52:43;;;;;;;1.35;1.05;;;;;;;1.79;84.22;101399.84;5014679;28;20053;-71
2021/04/11 04:55:17;;;;;;;1.45;1.13;;;;;;;1.73;84.42;101397.13;5012811;28;20069;-72
2021/04/11 04:57:48;;;;;;;1.17;1.00;;;;;;;1.75;84.02;101400.63;5011723;28;20427;-71
2021/04/11 05:00:19;;;;;;;1.50;1.30;;;;;;;1.75;83.78;101408.53;5016841;28;20057;-72
2021/04/11 05:02:51;;;;;;;2.60;1.20;;;;;;;1.75;83.80;101421.69;5015253;28;20369;-72
2021/04/11 05:05:20;;;;;;;1.80;1.30;;;;;;;1.77;83.24;101421.72;5018167;28;20061;-71
2021/04/11 05:07:52;;;;;;;0.93;0.93;;;;;;;1.83;83.29;101421.81;5014839;28;20065;-71
2021/04/11 05:10:24;;;;;;;1.52;1.30;;;;;;;1.81;84.13;101419.16;5016109;28;20065;-72
2021/04/11 05:12:58;;;;;;;1.33;1.23;;;;;;;1.85;83.01;101423.59;5015535;28;20052;-71
2021/04/11 05:15:26;;;;;;;;;;;;;;;1.89;83.05;101431.53;5014028;28;20065;-72
2021/04/11 05:17:57;;;;;;;1.10;1.10;;;;;;;1.85;83.31;101433.25;5015093;28;20308;-72
2021/04/11 05:20:29;;;;;;;1.42;1.30;;;;;;;1.83;83.30;101432.34;5009607;28;20053;-72
2021/04/11 05:23:01;;;;;;;2.10;1.40;;;;;;;1.84;83.09;101434.13;5015280;28;20057;-71
2021/04/11 05:25:36;;;;;;;2.53;1.40;;;;;;;1.88;82.88;101441.19;5005009;28;20142;-71
2021/04/11 05:28:09;;;;;;;1.30;1.20;;;;;;;1.89;82.24;101428.88;5014853;28;20364;-71
2021/04/11 05:30:39;;;;;;;1.10;1.10;;;;;;;1.87;82.31;101434.13;5014960;28;20175;-71
2021/04/11 05:33:09;;;;;;;2.05;1.30;;;;;;;1.87;81.62;101434.13;5014105;28;20349;-71
2021/04/11 05:35:37;;;;;;;1.75;1.30;;;;;;;1.86;82.28;101445.53;5013261;28;20064;-72
2021/04/11 05:38:20;;;;;;;1.42;1.13;;;;;;;1.86;81.72;101441.16;5015022;28;20061;-71
2021/04/11 05:40:53;;;;;;;1.25;1.20;;;;;;;1.80;81.32;101463.88;5016280;28;20463;-71
2021/04/11 05:43:28;;;;;;;1.27;1.20;;;;;;;1.84;81.28;101463.94;5016405;28;20065;-71
2021/04/11 05:46:04;;;;;;;1.30;1.17;;;;;;;1.84;81.51;101478.84;5016653;28;20328;-71
2021/04/11 05:48:37;;;;;;;1.35;1.25;;;;;;;1.89;80.89;101478.91;5019030;28;20100;-71
2021/04/11 05:51:07;;;;;;;1.20;1.20;;;;;;;1.84;80.99;101474.47;5019655;28;20068;-71
2021/04/11 05:53:37;;;;;;;1.60;1.15;;;;;;;1.81;80.99;101473.53;5018262;28;20079;-71
2021/04/11 05:56:09;;;;;;;1.42;1.20;;;;;;;1.80;81.85;101477.03;5018596;28;20058;-71
2021/04/11 05:58:41;;;;;;;1.27;1.15;;;;;;;1.82;81.93;101488.44;5019028;28;20064;-72
2021/04/11 06:01:13;;;;;;;1.95;1.10;;;;;;;1.84;80.88;101495.53;5017887;28;20065;-71
2021/04/11 06:03:46;;;;;;;1.20;1.10;;;;;;;1.92;79.75;101500.00;5017703;28;20061;-71
2021/04/11 06:06:18;;;;;;;1.20;1.20;;;;;;;1.97;80.17;101501.81;5018524;28;20064;-71
2021/04/11 06:08:55;;;;;;;1.40;1.30;;;;;;;2.11;80.56;101506.41;5018744;28;20064;-71
2021/04/11 06:11:41;;;;;;;1.42;1.33;;;;;;;2.14;80.16;101511.72;5017140;28;20049;-71
2021/04/11 06:14:14;;;;;;;2.10;1.20;;;;;;;2.14;79.88;101512.59;5017813;28;20152;-71
2021/04/11 06:16:42;;;;;;;1.20;1.00;;;;;;;2.19;79.63;101508.25;5016580;28;20057;-72
2021/04/11 06:19:09;;;;;;;1.25;1.05;;;;;;;2.27;80.06;101502.25;5017627;28;20086;-70
2021/04/11 06:21:48;;;;;;;1.00;1.00;;;;;;;2.24;79.80;101503.94;5018518;28;20077;-71
2021/04/11 06:24:27;;;;;;;1.45;1.35;;;;;;;2.22;79.94;101505.69;5018076;28;20104;-71
2021/04/11 06:27:04;;;;;;;1.40;1.10;;;;;;;2.23;79.70;101506.56;5015727;28;20475;-71
2021/04/11 06:29:36;;;;;;;1.50;1.20;;;;;;;2.72;78.11;101503.63;5018362;28;20115;-71
2021/04/11 06:32:07;;;;;;;1.23;1.02;;;;;;;3.06;76.10;101511.88;5017248;28;20054;-71
2021/04/11 06:34:38;;;;;;;0.90;0.90;;;;;;;3.34;76.78;101510.41;5019153;28;20100;-71
2021/04/11 06:37:08;;;;;;;0.88;0.88;;;;;;;3.50;74.80;101521.94;5017589;28;20088;-71
2021/04/11 06:39:38;;;;;;;1.08;1.00;;;;;;;3.67;75.64;101519.44;5015300;28;20053;-71
2021/04/11 06:42:26;;;;;;;1.88;1.15;;;;;;;3.69;75.20;101531.75;5017656;28;20084;-70
2021/04/11 06:45:03;;;;;;;0.90;0.90;;;;;;;3.93;74.48;101535.44;5017760;28;20069;-71
2021/04/11 06:47:53;;;;;;;1.33;1.00;;;;;;;4.04;75.37;101536.41;5018599;28;20064;-71
2021/04/11 06:50:29;;;;;;;0.90;0.90;;;;;;;4.22;74.93;101532.09;5017673;28;20069;-71
2021/04/11 06:53:21;;;;;;;0.90;0.90;;;;;;;3.96;74.53;101535.47;5017431;28;20359;-71
2021/04/11 06:56:19;;;;;;;1.85;1.10;;;;;;;3.83;75.32;101538.91;5020559;28;20065;-71
2021/04/11 06:58:56;;;;;;;1.15;0.80;;;;;;;3.77;75.53;101541.50;5016704;28;20140;-71
2021/04/11 07:02:04;;;;;;;1.10;1.00;;;;;;;3.80;75.34;101541.50;5018837;28;20062;-72
2021/04/11 07:04:49;;;;;;;0.93;0.90;;;;;;;3.71;76.63;101531.78;5016619;28;20355;-70
2021/04/11 07:07:30;;;;;;;;;;;;;;;4.07;75.39;101531.16;5017400;28;20287;-71
2021/04/11 07:10:20;;;;;;;1.55;1.02;;;;;;;4.62;74.80;101521.69;5015265;28;19929;-70
2021/04/11 07:13:30;;;;;;;0.90;0.90;;;;;;;4.59;73.41;101527.84;5017024;28;20058;-70
2021/04/11 07:16:15;;;;;;;1.10;1.10;;;;;;;4.57;73.60;101519.03;5008266;28;20065;-72
2021/04/11 07:19:15;;;;;;;0.98;0.98;;;;;;;5.04;73.44;101528.00;5016821;28;21689;-71
2021/04/11 07:22:14;;;;;;;0.93;0.93;;;;;;;5.73;72.21;101529.75;5016531;28;20062;-72
2021/04/11 07:25:06;;;;;;;1.35;0.98;;;;;;;5.90;70.29;101522.66;5020578;28;20061;-72
2021/04/11 07:27:49;;;;;;;1.08;1.08;;;;;;;6.23;69.18;101526.19;5006565;28;20068;-72
2021/04/11 07:30:27;;;;;;;0.98;0.98;;;;;;;6.76;69.09;101529.50;5016855;28;20061;-71
2021/04/11 07:33:14;;;;;;;1.05;1.00;;;;;;;6.41;69.48;101527.88;5015512;28;20555;-71
2021/04/11 07:35:54;;;;;;;1.92;1.13;;;;;;;6.48;68.33;101531.38;5015737;28;20106;-72
2021/04/11 07:38:31;;;;;;;1.23;1.10;;;;;;;6.10;68.08;101538.56;5015638;28;20064;-72
2021/04/11 07:41:11;;;;;;;0.82;0.82;;;;;;;6.05;67.73;101535.03;5015029;28;20061;-72
2021/04/11 07:43:54;;;;;;;0.80;0.80;;;;;;;5.50;67.05;101551.84;5016431;28;20057;-71
2021/04/11 07:46:42;;;;;;;0.75;0.73;;;;;;;5.59;66.32;101559.78;5014690;28;20393;-71
2021/04/11 07:49:34;;;;;;;0.82;0.82;;;;;;;5.41;67.20;101560.66;5016077;28;20064;-71
2021/04/11 07:52:19;;;;;;;1.27;1.13;;;;;;;5.08;69.12;101561.50;5012046;28;20101;-71
2021/04/11 07:55:09;;;;;;;1.20;0.90;;;;;;;6.23;67.50;101568.59;5018850;28;20092;-71
2021/04/11 07:57:49;;;;;;;0.80;0.80;;;;;;;6.63;64.43;101559.59;5011116;28;20065;-71
2021/04/11 08:00:34;;;;;;;1.13;1.02;;;;;;;7.18;63.64;101569.91;5019583;28;20167;-71
2021/04/11 08:03:21;;;;;;;0.70;0.70;;;;;;;7.35;63.67;101563.63;5009667;28;20065;-71
2021/04/11 08:06:10;;;;;;;1.00;0.82;;;;;;;7.33;63.31;101565.41;5014053;28;20387;-71
2021/04/11 08:08:53;;;;;;;0.63;0.63;;;;;;;6.80;64.53;101571.00;5012281;28;20108;-71
2021/04/11 08:11:51;;;;;;;0.57;0.57;;;;;;;6.77;65.95;101571.03;5016702;28;20065;-71
2021/04/11 08:14:33;;;;;;;0.82;0.82;;;;;;;6.32;65.84;101581.78;5015847;28;20618;-71
2021/04/11 08:17:08;;;;;;;0.80;0.80;;;;;;;6.08;67.09;101587.13;5015904;28;20127;-71
2021/04/11 08:20:11;;;;;;;0.90;0.70;;;;;;;5.77;67.12;101593.34;5015400;28;20068;-71
2021/04/11 08:22:57;;;;;;;0.65;0.65;;;;;;;5.66;66.46;101591.56;5014580;28;20303;-71
2021/04/11 08:25:32;;;;;;;0.75;0.75;;;;;;;5.39;64.40;101602.13;5016898;28;20267;-71
2021/04/11 08:28:30;;;;;;;1.00;0.90;;;;;;;5.32;63.74;101600.34;5014496;28;20057;-71
2021/04/11 08:31:18;;;;;;;1.02;0.73;;;;;;;4.97;64.46;101605.53;5016303;28;20482;-71
2021/04/11 08:34:08;;;;;;;0.80;0.80;;;;;;;4.84;63.35;101608.16;5014116;28;20061;-70
2021/04/11 08:37:04;;;;;;;0.70;0.70;;;;;;;4.72;63.83;101608.09;5014517;28;20057;-71
2021/04/11 08:39:45;;;;;;;0.85;0.70;;;;;;;4.76;65.51;101615.16;5013753;28;20053;-71
2021/04/11 08:42:31;;;;;;;1.25;0.80;;;;;;;4.78;65.03;101616.03;5013457;28;20053;-71
2021/04/11 08:45:24;;;;;;;1.30;0.85;;;;;;;4.61;64.23;101620.38;5013779;28;20061;-71
2021/04/11 08:48:03;;;;;;;0.77;0.73;;;;;;;4.76;65.74;101627.50;5013911;28;20148;-70
2021/04/11 08:50:36;;;;;;;0.88;0.88;;;;;;;4.84;64.91;101625.78;5013859;28;20459;-71
2021/04/11 08:53:09;;;;;;;0.70;0.70;;;;;;;4.79;63.99;101627.53;5015486;28;20096;-70
2021/04/11 08:55:42;;;;;;;0.83;0.83;;;;;;;4.91;64.68;101632.84;5011973;28;20049;-71
2021/04/11 08:58:32;;;;;;;0.80;0.80;;;;;;;5.41;63.94;101632.13;5015774;28;20299;-70
2021/04/11 09:01:08;;;;;;;0.75;0.68;;;;;;;5.89;61.99;101633.94;5013183;28;20054;-70
2021/04/11 09:03:48;;;;;;;0.68;0.68;;;;;;;5.90;61.89;101641.88;5016026;28;20701;-70
2021/04/11 09:06:26;;;;;;;1.13;0.77;;;;;;;5.72;59.18;101642.75;5012553;28;20071;-70
2021/04/11 09:09:36;;;;;;;1.30;0.77;;;;;;;6.59;58.76;101640.94;5018201;28;20211;-70
2021/04/11 09:12:17;;;;;;;0.57;0.57;;;;;;;7.07;56.53;101641.63;5009912;28;20157;-70
2021/04/11 09:14:57;;;;;;;0.47;0.47;;;;;;;7.00;56.17;101660.22;5032137;28;20441;-70
2021/04/11 09:17:44;;;;;;;0.80;0.80;;;;;;;7.24;54.54;101641.56;5009618;28;20437;-70
2021/04/11 09:20:17;;;;;;;0.68;0.68;;;;;;;7.56;54.57;101637.81;5018412;28;20057;-70
2021/04/11 09:23:04;;;;;;;0.50;0.50;;;;;;;7.12;55.78;101646.94;5010083;28;20057;-70
2021/04/11 09:25:33;;;;;;;1.55;0.65;;;;;;;6.78;56.49;101657.69;5016915;28;20373;-70
2021/04/11 09:28:31;;;;;;;0.60;0.60;;;;;;;7.26;55.79;101653.03;5009492;28;20057;-70
2021/04/11 09:31:30;;;;;;;0.65;0.65;;;;;;;6.61;56.49;101657.72;5012996;28;20060;-71
2021/04/11 09:34:10;;;;;;;1.42;0.82;;;;;;;6.92;56.06;101649.66;5017280;28;20059;-70
2021/04/11 09:36:47;;;;;;;0.70;0.70;;;;;;;6.50;57.18;101665.72;5010723;28;20080;-70
2021/04/11 09:39:42;;;;;;;0.85;0.68;;;;;;;6.31;57.53;101667.50;5015449;28;20113;-69
2021/04/11 09:42:30;;;;;;;0.63;0.63;;;;;;;6.25;59.73;101667.53;5011068;28;20068;-69
2021/04/11 09:45:28;;;;;;;0.95;0.90;;;;;;;5.53;61.13;101688.63;5014486;28;20426;-70
2021/04/11 09:48:15;;;;;;;0.95;0.90;;;;;;;5.27;63.16;101683.25;5012202;28;20448;-69
2021/04/11 09:50:50;;;;;;;0.70;0.70;;;;;;;5.16;63.25;101675.25;5015031;28;20060;-70
2021/04/11 09:54:00;;;;;;;1.55;0.70;;;;;;;4.78;64.81;101692.72;5015120;28;20068;-69
2021/04/11 09:56:41;;;;;;;1.45;0.90;;;;;;;4.79;66.30;101709.50;5030524;28;20608;-71
2021/04/11 09:59:24;;;;;;;2.17;0.82;;;;;;;4.95;67.21;101689.28;5015065;28;20108;-70
2021/04/11 10:01:59;;;;;;;0.87;0.87;;;;;;;5.21;65.63;101684.09;5013592;28;20518;-70
2021/04/11 10:04:36;;;;;;;1.02;0.73;;;;;;;5.61;66.13;101686.88;5013693;28;20065;-70
2021/04/11 10:07:17;;;;;;;0.90;0.90;;;;;;;5.96;63.51;101679.00;5012539;28;20061;-70
2021/04/11 10:09:53;;;;;;;0.80;0.80;;;;;;;6.50;60.94;101686.94;5014149;28;20065;-71
2021/04/11 10:12:44;;;;;;;1.08;0.95;;;;;;;6.41;58.77;101692.22;5013168;28;20050;-72
2021/04/11 10:15:18;;;;;;;0.75;0.70;;;;;;;6.62;57.52;101693.06;5011589;28;20061;-72
2021/04/11 10:18:03;;;;;;;0.60;0.60;;;;;;;7.18;57.12;101678.72;5013837;28;20061;-73
2021/04/11 10:20:38;;;;;;;1.00;0.82;;;;;;;7.89;55.96;101672.13;5013821;28;20517;-73
2021/04/11 10:23:20;;;;;;;1.23;0.93;;;;;;;7.14;57.80;101686.75;5015387;28;20451;-73
2021/04/11 10:25:52;;;;;;;1.00;0.90;;;;;;;6.73;57.09;101688.66;5010368;28;20072;-72
2021/04/11 10:28:28;;;;;;;0.70;0.70;;;;;;;6.64;57.75;101708.13;5016322;28;20054;-71
2021/04/11 10:31:10;;;;;;;0.57;0.57;;;;;;;7.36;55.30;101696.34;5008866;28;20058;-72
2021/04/11 10:33:45;;;;;;;0.82;0.60;;;;;;;7.85;53.01;101698.72;5018560;28;20470;-71
2021/04/11 10:36:16;;;;;;;0.82;0.73;;;;;;;7.54;52.25;101695.34;5011731;28;20061;-73
2021/04/11 10:38:49;;;;;;;0.90;0.90;;;;;;;6.88;55.18;101707.16;5020427;28;20061;-72
2021/04/11 10:41:40;;;;;;;0.70;0.70;;;;;;;7.18;54.86;101709.72;5012680;28;20076;-72
2021/04/11 10:44:27;;;;;;;1.00;0.65;;;;;;;7.03;55.10;101721.25;5020339;28;20347;-73
2021/04/11 10:47:06;;;;;;;0.63;0.60;;;;;;;7.82;54.86;101716.47;5012519;28;20062;-71
2021/04/11 10:49:49;;;;;;;0.50;0.50;;;;;;;7.77;53.89;101719.13;5017660;28;20072;-71
2021/04/11 10:52:39;;;;;;;0.90;0.90;;;;;;;6.51;53.88;101735.53;5014379;28;20067;-73
2021/04/11 10:55:33;;;;;;;0.90;0.80;;;;;;;6.88;54.57;101732.81;5016444;28;20259;-71
2021/04/11 10:58:44;;;;;;;0.98;0.63;;;;;;;6.87;54.95;101739.88;5018592;28;20061;-71
2021/04/11 11:01:20;;;;;;;0.32;0.32;;;;;;;6.20;58.06;101739.94;5011081;28;20148;-71
2021/04/11 11:04:28;;;;;;;0.52;0.52;;;;;;;6.61;58.11;101752.34;5016742;28;20062;-71
2021/04/11 11:07:14;;;;;;;1.13;0.80;;;;;;;7.31;58.69;101751.25;5013087;28;20156;-72
2021/04/11 11:09:47;;;;;;;0.80;0.80;;;;;;;6.67;60.46;101760.25;5018458;28;20096;-73
2021/04/11 11:12:40;;;;;;;0.70;0.60;;;;;;;6.30;61.81;101763.81;5010771;28;20145;-72
2021/04/11 11:15:15;;;;;;;0.70;0.70;;;;;;;6.86;60.99;101761.09;5014587;28;20528;-72
2021/04/11 11:18:00;;;;;;;0.90;0.70;;;;;;;6.59;59.51;101759.38;5015681;28;20377;-73
2021/04/11 11:20:32;;;;;;;0.73;0.73;;;;;;;7.56;57.35;101751.13;5017558;28;20068;-73
2021/04/11 11:23:30;;;;;;;1.65;0.68;;;;;;;7.60;57.25;101755.56;5017897;28;20061;-73
2021/04/11 11:26:36;;;;;;;0.63;0.63;;;;;;;6.76;56.99;101776.19;5017059;28;20065;-73
2021/04/11 11:29:16;;;;;;;0.60;0.60;;;;;;;6.96;56.54;101773.47;5018444;28;20061;-73
2021/04/11 11:31:56;;;;;;;0.63;0.60;;;;;;;6.45;54.68;101786.81;5016472;28;20478;-73
2021/04/11 11:34:36;;;;;;;1.10;0.80;;;;;;;6.57;54.48;101771.75;5016160;28;20061;-72
2021/04/11 11:37:19;;;;;;;0.60;0.60;;;;;;;7.23;52.68;101783.13;5018654;28;20151;-72
2021/04/11 11:39:53;;;;;;;0.77;0.77;;;;;;;8.06;53.24;101765.03;5017965;28;20065;-73
2021/04/11 11:42:32;;;;;;;0.73;0.65;;;;;;;8.33;50.86;101764.81;5017453;28;20144;-73
2021/04/11 11:45:11;;;;;;;0.98;0.80;;;;;;;7.37;50.44;101767.19;5019227;28;20057;-74
2021/04/11 11:47:46;;;;;;;0.85;0.85;;;;;;;8.04;50.11;101768.56;5020879;28;20069;-74
2021/04/11 11:50:29;;;;;;;0.93;0.70;;;;;;;8.14;48.60;101766.75;5017492;28;20708;-73
2021/04/11 11:53:04;;;;;;;0.65;0.65;;;;;;;7.89;48.84;101775.78;5019857;28;20076;-74
2021/04/11 11:55:34;;;;;;;1.10;0.77;;;;;;;7.11;49.49;101784.03;5014040;28;20069;-74
2021/04/11 11:58:09;;;;;;;1.05;0.80;;;;;;;7.98;51.38;101779.22;5020886;28;20348;-74
2021/04/11 12:00:38;;;;;;;0.80;0.65;;;;;;;8.71;50.87;101776.91;5016179;28;20053;-75
2021/04/11 12:03:21;;;;;;;0.73;0.52;;;;;;;7.64;51.02;101782.09;5022159;28;20061;-74
2021/04/11 12:05:56;;;;;;;1.20;0.60;;;;;;;6.81;51.71;101803.59;5013618;28;20159;-75
2021/04/11 12:08:43;;;;;;;0.63;0.63;;;;;;;7.19;52.59;101802.63;5021515;28;20538;-74
2021/04/11 12:11:17;;;;;;;0.60;0.60;;;;;;;7.93;50.19;101788.13;5014920;28;20859;-75
2021/04/11 12:13:53;;;;;;;0.80;0.80;;;;;;;7.64;51.12;101806.00;5021884;28;20061;-74
2021/04/11 12:16:25;;;;;;;0.60;0.60;;;;;;;7.28;51.45;101818.50;5011970;28;20059;-74
2021/04/11 12:19:00;;;;;;;0.60;0.60;;;;;;;7.57;49.94;101816.66;5019174;28;20071;-74